Disclaimer: Data is provisional and is subject to revision. Not to be used as official record

Enter Station name or Station Shef Code



Query Executed Mon Jan 24 2:43:54 PST 2022

SLPT_WX LMC Weather Station 41.5297 -119.05457
5909 Lower Mahogany Creek

Date / Time Air Temp C (C) Relative Humidity (%) Pressure (hPa) Wind Speed (mph) Wind Direction (Degree) Dew Point (C) Rainfall Annual (in) Solar Radiation (w/m^2) Snow Depth (in) SWE (in) Battery (V)
2022-01-24 02:00 AM -9.20 100.00 826.10 1.30 174.00 -9.20 0.01 -13.11 13.50 0.00 12.71
2022-01-24 01:00 AM -8.30 100.00 826.50 1.40 119.00 -8.30 0.01 -13.11 13.60 0.00 12.78
2022-01-24 12:00 AM -7.70 100.00 827.10 0.30 92.00 -7.70 0.01 -13.74 13.60 0.00 12.82
2022-01-23 11:00 PM -7.40 99.80 827.70 0.40 341.00 -7.43 0.01 -13.55 13.70 0.00 12.77
2022-01-23 10:00 PM -5.80 93.90 828.00 0.30 239.00 -6.63 0.01 -14.35 13.70 0.00 12.81
2022-01-23 09:00 PM -6.00 88.00 828.20 0.90 125.00 -7.67 0.01 -14.52 13.50 0.00 12.82
2022-01-23 08:00 PM -3.90 86.30 828.30 1.60 129.00 -5.85 0.01 -13.71 13.40 0.00 12.88
2022-01-23 07:00 PM -2.60 81.10 828.30 1.70 136.00 -5.39 0.01 -14.93 13.70 0.00 12.93
2022-01-23 06:00 PM -2.00 76.70 828.30 1.30 242.00 -5.54 0.01 -15.25 13.80 0.00 13.02
2022-01-23 05:00 PM 4.10 55.50 828.30 1.30 276.00 -4.01 0.01 -0.56 13.60 0.00 13.01
2022-01-23 04:00 PM 7.60 41.00 828.50 0.50 141.00 -4.81 0.01 178.30 13.80 0.00 14.07
2022-01-23 03:00 PM 5.80 47.60 828.10 4.40 205.00 -4.47 0.01 341.20 13.60 0.00 14.09
2022-01-23 02:00 PM 5.60 44.90 828.20 3.00 215.00 -5.43 0.01 473.90 109.30 0.00 14.00
2022-01-23 01:00 PM 4.40 46.60 828.60 4.20 216.00 -6.04 0.01 559.50 109.30 0.00 14.53
2022-01-23 12:00 PM 3.40 45.80 829.40 6.00 207.00 -7.18 0.01 580.40 109.30 0.00 14.51
2022-01-23 11:00 AM 2.70 47.50 830.30 2.80 214.00 -7.35 0.01 527.90 13.80 0.00 13.99
2022-01-23 10:00 AM 2.00 50.90 830.60 0.60 221.00 -7.10 0.01 424.60 14.90 0.00 13.32
2022-01-23 09:00 AM -0.30 57.50 830.50 2.10 321.00 -7.67 0.01 286.90 13.90 0.00 12.52
2022-01-23 08:00 AM -5.90 75.80 830.30 3.60 337.00 -9.48 0.01 145.90 14.00 0.00 12.44
2022-01-23 07:00 AM -7.00 80.60 829.80 1.40 194.00 -9.77 0.01 -9.37 13.90 0.00 12.48
2022-01-23 06:00 AM -5.60 74.10 829.50 3.50 94.00 -9.48 0.01 -12.39 13.50 0.00 12.47
2022-01-23 05:00 AM -4.20 66.50 829.20 4.00 349.00 -9.51 0.01 -13.28 13.60 0.00 12.52
2022-01-23 04:00 AM -3.40 65.90 829.40 6.00 21.00 -8.86 0.01 -12.73 13.80 0.00 12.44
2022-01-23 03:00 AM -2.20 62.20 829.60 6.70 306.00 -8.46 0.01 -12.78 13.80 0.00 12.56
2022-01-23 02:00 AM -4.70 70.20 829.80 3.50 352.00 -9.30 0.01 -12.64 14.00 0.00 12.58
2022-01-23 01:00 AM -3.90 66.20 829.80 4.50 291.00 -9.28 0.01 -12.90 13.70 0.00 12.61
2022-01-23 12:00 AM -3.50 65.50 829.90 6.70 28.00 -9.03 0.01 -12.93 13.90 0.00 12.64
2022-01-22 11:00 PM -3.30 64.60 830.10 4.40 17.00 -9.02 0.01 -13.54 13.80 0.00 12.71
2022-01-22 10:00 PM -1.50 61.20 829.80 6.90 8.00 -8.00 0.01 -13.90 13.90 0.00 12.68
2022-01-22 09:00 PM -1.00 57.90 829.80 5.80 345.00 -8.24 0.01 -13.70 13.90 0.00 12.76
2022-01-22 08:00 PM -1.50 58.40 829.80 3.00 21.00 -8.60 0.01 -14.55 14.00 0.00 12.74
2022-01-22 07:00 PM -2.00 61.80 829.60 5.20 296.00 -8.35 0.01 -13.43 14.00 0.00 12.80
2022-01-22 06:00 PM -0.10 55.40 829.00 7.70 46.00 -7.97 0.01 -13.60 14.00 0.00 12.78
2022-01-22 05:00 PM 0.50 56.40 828.80 4.50 37.00 -7.17 0.01 -9.03 14.00 0.00 12.91
2022-01-22 04:00 PM 3.00 48.20 829.00 13.10 47.00 -6.89 0.01 179.20 109.30 0.00 14.24
2022-01-22 03:00 PM 3.40 45.10 828.70 14.80 39.00 -7.38 0.01 337.70 109.30 0.00 14.04
2022-01-22 02:00 PM 3.60 41.50 828.70 11.00 52.00 -8.27 0.01 466.70 109.30 0.00 14.64
2022-01-22 01:00 PM 3.10 40.60 829.00 16.50 17.00 -9.01 0.01 550.80 109.30 0.00 14.56
2022-01-22 12:00 PM 2.60 41.10 829.80 8.80 16.00 -9.30 0.01 559.90 109.30 0.00 14.72
2022-01-22 11:00 AM 1.70 47.70 829.80 11.70 38.00 -8.22 0.01 521.10 13.90 0.00 13.60
2022-01-22 10:00 AM 0.50 55.20 830.00 10.30 21.00 -7.45 0.01 425.20 13.90 0.00 12.91
2022-01-22 09:00 AM -2.00 67.40 829.80 6.40 24.00 -7.23 0.01 287.90 13.90 0.00 12.44
2022-01-22 08:00 AM -8.30 91.70 829.80 4.90 9.00 -9.41 0.01 123.10 14.00 0.00 12.30
2022-01-22 07:00 AM -6.00 80.00 829.90 5.90 355.00 -8.89 0.01 -11.17 13.80 0.00 12.39
2022-01-22 06:00 AM -4.80 80.70 829.40 8.80 0.00 -7.61 0.01 -10.93 13.80 0.00 12.41
2022-01-22 05:00 AM -6.00 83.50 829.30 8.40 328.00 -8.34 0.01 -12.10 13.80 0.00 12.42
2022-01-22 04:00 AM -5.00 77.90 829.20 6.70 326.00 -8.26 0.01 -12.43 13.80 0.00 12.41
2022-01-22 03:00 AM -5.90 82.50 829.20 5.20 333.00 -8.40 0.01 -12.59 13.90 0.00 12.39
2022-01-22 02:00 AM -4.40 78.90 829.60 7.50 358.00 -7.51 0.01 -12.39 13.80 0.00 12.45
2022-01-22 01:00 AM -6.30 84.40 829.30 6.00 338.00 -8.50 0.01 -12.67 13.90 0.00 12.56
2022-01-22 12:00 AM -6.50 88.10 829.80 7.10 351.00 -8.14 0.01 -12.07 13.80 0.00 12.54
2022-01-21 11:00 PM -7.50 94.60 830.00 5.20 355.00 -8.22 0.01 -12.01 13.80 0.00 12.62
2022-01-21 10:00 PM -5.60 96.60 829.90 3.40 340.00 -6.06 0.01 -11.83 13.80 0.00 12.58
2022-01-21 09:00 PM -5.60 86.50 829.80 4.00 1.00 -7.49 0.01 -13.53 13.70 0.00 12.71
2022-01-21 08:00 PM -4.70 84.60 829.80 2.70 323.00 -6.90 0.01 -13.54 13.70 0.00 12.70
2022-01-21 07:00 PM -3.20 78.20 829.80 4.10 37.00 -6.46 0.01 -13.65 13.90 0.00 12.70
2022-01-21 06:00 PM -2.70 73.60 829.60 5.70 16.00 -6.76 0.01 -13.98 13.80 0.00 12.81
2022-01-21 05:00 PM -1.10 67.90 829.50 3.80 47.00 -6.27 0.01 -11.67 13.80 0.00 13.03
2022-01-21 04:00 PM 0.50 60.80 829.40 10.10 69.00 -6.19 0.01 157.80 109.30 0.00 14.33
2022-01-21 03:00 PM 1.00 64.50 829.80 4.50 58.00 -4.94 0.01 342.20 109.30 0.00 14.14
2022-01-21 02:00 PM 0.70 65.80 829.60 12.20 46.00 -4.96 0.01 458.70 109.30 0.00 14.70
2022-01-21 01:00 PM -0.10 70.20 830.00 7.10 62.00 -4.87 0.01 636.70 14.10 0.00 14.80
2022-01-21 12:00 PM -0.70 74.70 830.30 7.20 52.00 -4.63 0.01 709.20 109.30 0.00 14.89
2022-01-21 11:00 AM -1.90 79.70 830.80 10.20 19.00 -4.94 0.01 617.90 13.90 0.00 13.46
2022-01-21 10:00 AM -3.00 85.10 831.00 8.00 59.00 -5.15 0.01 149.90 13.90 0.00 12.60
2022-01-21 09:00 AM -3.20 83.50 830.10 7.00 21.00 -5.60 0.01 160.20 13.90 0.00 12.50
2022-01-21 08:00 AM -3.60 85.10 829.40 2.90 319.00 -5.74 0.01 33.26 13.90 0.00 12.44
2022-01-21 07:00 AM -3.50 85.90 828.80 7.60 11.00 -5.52 0.01 -11.01 13.90 0.00 12.42
2022-01-21 06:00 AM -4.00 84.20 827.70 12.50 15.00 -6.27 0.01 -12.93 14.00 0.00 12.44
2022-01-21 05:00 AM -3.80 84.40 827.20 7.00 38.00 -6.04 0.01 -12.34 13.90 0.00 12.42
2022-01-21 04:00 AM -3.50 86.40 826.80 11.50 18.00 -5.44 0.01 -12.17 13.90 0.00 12.50
2022-01-21 03:00 AM -3.90 84.90 826.40 6.50 22.00 -6.07 0.01 -12.84 13.90 0.00 12.52
2022-01-21 02:00 AM -2.70 76.90 826.80 4.90 10.00 -6.19 0.01 -13.80 13.80 0.00 12.58
2022-01-21 01:00 AM -2.40 82.10 826.70 8.00 29.00 -5.04 0.01 -13.47 13.80 0.00 12.55
2022-01-21 12:00 AM -2.90 100.00 826.30 4.70 124.00 -2.90 0.01 -12.57 13.60 0.00 12.65
2022-01-20 11:00 PM -1.40 92.90 826.70 6.70 59.00 -2.40 0.01 -12.66 13.80 0.00 12.68
2022-01-20 10:00 PM -1.20 91.60 826.50 2.90 236.00 -2.39 0.01 -13.54 13.80 0.00 12.74
2022-01-20 09:00 PM -0.40 90.70 826.50 3.50 107.00 -1.73 0.01 -11.78 14.10 0.00 12.77
2022-01-20 08:00 PM 1.40 78.70 826.70 2.10 86.00 -1.89 0.01 -14.26 13.80 0.00 12.78
2022-01-20 07:00 PM 3.30 72.70 827.10 2.20 328.00 -1.13 0.01 -4.73 13.70 0.00 12.81
2022-01-20 06:00 PM 3.20 77.60 827.30 3.00 75.00 -0.33 0.01 -15.22 13.80 0.00 12.94
2022-01-20 05:00 PM 3.10 80.30 827.10 5.40 158.00 0.04 0.01 -11.62 14.00 0.00 12.98
2022-01-20 04:00 PM 4.70 68.50 827.10 5.10 230.00 -0.60 0.01 96.50 14.10 0.00 13.29
2022-01-20 03:00 PM 6.00 61.90 827.20 2.10 202.00 -0.75 0.01 305.20 109.30 0.00 14.19
2022-01-20 02:00 PM 5.90 60.70 827.30 6.20 210.00 -1.11 0.01 655.20 109.30 0.00 14.52
2022-01-20 01:00 PM 4.90 65.20 827.80 9.30 191.00 -1.08 0.01 438.50 14.10 0.00 14.25
2022-01-20 12:00 PM 4.00 71.00 828.80 9.70 201.00 -0.78 0.01 338.30 14.40 0.00 13.76
2022-01-20 11:00 AM 2.40 74.40 830.20 5.60 207.00 -1.68 0.01 626.20 14.50 0.00 13.82
2022-01-20 10:00 AM 0.70 78.10 830.40 4.90 223.00 -2.68 0.01 414.80 14.30 0.00 13.42
2022-01-20 09:00 AM -3.40 98.80 829.80 2.60 273.00 -3.56 0.01 280.20 14.10 0.00 12.53
2022-01-20 08:00 AM -8.90 100.00 829.60 3.90 136.00 -8.90 0.01 29.68 14.40 0.00 12.38
2022-01-20 07:00 AM -8.90 100.00 829.80 2.10 281.00 -8.90 0.01 -11.55 13.90 0.00 12.46
2022-01-20 06:00 AM -9.70 100.00 830.00 3.70 116.00 -9.70 0.01 -10.79 14.20 0.00 12.38
2022-01-20 05:00 AM -8.20 97.60 830.00 3.60 112.00 -8.52 0.01 -12.48 14.00 0.00 12.45
2022-01-20 04:00 AM -8.30 100.00 830.30 2.50 37.00 -8.30 0.01 -10.81 14.20 0.00 12.54
2022-01-20 03:00 AM -8.80 100.00 830.40 0.80 77.00 -8.80 0.01 -11.70 14.10 0.00 12.61
2022-01-20 02:00 AM -7.30 100.00 830.80 2.00 348.00 -7.30 0.01 -12.56 14.10 0.00 12.59
2022-01-20 01:00 AM -7.70 100.00 830.70 6.00 100.00 -7.70 0.01 -11.89 14.40 0.00 12.63
2022-01-20 12:00 AM -5.70 100.00 830.30 1.60 96.00 -5.70 0.01 -12.94 14.00 0.00 12.71
2022-01-19 11:00 PM -4.20 99.80 830.40 2.50 101.00 -4.23 0.01 -12.85 13.80 0.00 12.79
2022-01-19 10:00 PM -5.20 100.00 829.90 2.70 29.00 -5.20 0.01 -9.53 14.40 0.00 12.66
2022-01-19 09:00 PM -4.70 93.70 829.70 1.70 64.00 -5.56 0.01 -13.40 14.10 0.00 12.79
2022-01-19 08:00 PM -3.40 95.00 829.20 4.40 355.00 -4.09 0.01 -13.21 14.20 0.00 12.75
2022-01-19 07:00 PM 0.80 76.90 828.80 1.60 24.00 -2.79 0.01 -14.24 14.20 0.00 12.88
2022-01-19 06:00 PM 0.40 78.70 828.50 1.10 192.00 -2.87 0.01 -14.15 14.20 0.00 12.87
2022-01-19 05:00 PM 2.30 70.10 827.80 2.90 48.00 -2.59 0.01 0.99 14.30 0.00 12.95
2022-01-19 04:00 PM 2.80 65.60 827.50 6.30 43.00 -3.00 0.01 69.48 14.40 0.00 13.29
2022-01-19 03:00 PM 4.10 57.20 826.90 6.20 46.00 -3.61 0.01 317.00 109.30 0.00 14.24
2022-01-19 02:00 PM 4.60 51.30 827.20 3.40 51.00 -4.59 0.01 556.20 14.10 0.00 14.08
2022-01-19 01:00 PM 4.10 52.30 826.90 2.90 6.00 -4.80 0.01 548.30 14.60 0.00 14.49
2022-01-19 12:00 PM 2.70 59.50 827.20 2.40 350.00 -4.40 0.01 578.70 109.30 0.00 14.71
2022-01-19 11:00 AM 2.10 63.50 827.30 4.40 336.00 -4.10 0.01 467.60 14.50 0.00 14.19
2022-01-19 10:00 AM -0.20 72.70 827.20 5.70 317.00 -4.51 0.01 558.60 14.50 0.00 13.55
2022-01-19 09:00 AM -4.50 91.20 826.50 3.30 348.00 -5.72 0.01 278.20 14.60 0.00 12.46
2022-01-19 08:00 AM -8.70 98.30 826.30 2.10 2.00 -8.92 0.01 24.58 14.60 0.00 12.39
2022-01-19 07:00 AM -10.70 100.00 825.30 1.50 357.00 -10.70 0.01 -11.10 14.70 0.00 12.41
2022-01-19 06:00 AM -10.80 100.00 825.00 3.70 25.00 -10.80 0.01 -11.29 14.50 0.00 12.41
2022-01-19 05:00 AM -9.10 79.30 824.80 2.60 280.00 -12.03 0.01 -14.32 14.50 0.00 12.41
2022-01-19 04:00 AM -9.10 93.20 824.50 1.00 162.00 -10.00 0.01 -13.65 13.90 0.00 12.49
2022-01-19 03:00 AM -8.10 94.30 824.20 3.70 7.00 -8.86 0.01 -12.52 14.20 0.00 12.55
2022-01-19 02:00 AM -8.10 88.40 824.00 0.60 96.00 -9.68 0.01 -12.84 14.90 0.00 12.53
2022-01-19 01:00 AM -7.00 90.60 824.50 2.00 102.00 -8.28 0.01 -13.34 14.40 0.00 12.56
2022-01-19 12:00 AM -6.90 99.40 823.60 0.60 119.00 -6.98 0.01 -12.60 15.00 0.00 12.66
2022-01-18 11:00 PM -3.60 87.10 823.50 6.00 27.00 -5.43 0.01 -12.16 14.50 0.00 12.60
2022-01-18 10:00 PM -4.10 85.50 823.10 4.30 0.00 -6.17 0.01 -12.71 14.50 0.00 12.63
2022-01-18 09:00 PM -2.90 87.20 822.80 4.30 27.00 -4.73 0.01 -12.94 14.90 0.00 12.69
2022-01-18 08:00 PM 0.20 74.20 822.50 0.20 6.00 -3.85 0.01 -12.39 14.90 0.00 12.80
2022-01-18 07:00 PM 0.40 75.90 822.30 4.40 39.00 -3.35 0.01 -13.52 14.50 0.00 12.85
2022-01-18 06:00 PM -0.10 80.40 821.50 3.60 114.00 -3.07 0.01 -13.57 14.30 0.00 12.81
2022-01-18 05:00 PM 2.30 71.80 821.30 1.30 10.00 -2.26 0.01 -1.43 14.70 0.00 13.04
2022-01-18 04:00 PM 4.60 62.00 820.60 1.80 176.00 -2.05 0.01 52.49 14.60 0.00 13.39
2022-01-18 03:00 PM 5.40 58.80 820.60 4.50 219.00 -2.01 0.01 401.10 109.30 0.00 14.12
2022-01-18 02:00 PM 4.90 59.70 820.80 5.40 289.00 -2.28 0.01 449.40 15.20 0.00 14.55
2022-01-18 01:00 PM 5.40 50.90 820.80 3.60 228.00 -3.95 0.01 388.00 109.30 0.00 14.57
2022-01-18 12:00 PM 4.00 55.70 821.00 3.90 201.00 -4.06 0.01 652.30 109.30 0.00 14.40
2022-01-18 11:00 AM 2.20 62.40 821.40 0.30 202.00 -4.24 0.01 488.50 14.70 0.00 14.10
2022-01-18 10:00 AM -0.70 71.10 821.70 1.60 124.00 -5.28 0.01 424.80 14.10 0.00 13.15
2022-01-18 09:00 AM -5.40 87.30 821.00 0.80 336.00 -7.18 0.01 277.20 14.30 0.00 12.63
2022-01-18 08:00 AM -6.50 90.00 820.60 4.50 63.00 -7.87 0.01 26.62 14.10 0.00 12.40
2022-01-18 07:00 AM -6.60 86.10 820.00 2.90 303.00 -8.54 0.01 -11.18 13.60 0.00 12.35
2022-01-18 06:00 AM -6.10 87.60 820.10 3.80 0.00 -7.82 0.01 -12.30 13.70 0.00 12.34
2022-01-18 05:00 AM -5.20 87.60 819.80 5.00 355.00 -6.94 0.01 -10.97 14.50 0.00 12.39
2022-01-18 04:00 AM -6.20 92.70 819.50 3.50 33.00 -7.19 0.01 -10.46 14.20 0.00 12.44
2022-01-18 03:00 AM -6.20 94.40 819.80 2.80 6.00 -6.95 0.01 -10.55 14.20 0.00 12.39
2022-01-18 02:00 AM -8.60 94.40 820.10 0.90 113.00 -9.34 0.01 -10.18 13.70 0.00 12.50
2022-01-18 01:00 AM -8.60 96.30 819.70 0.50 326.00 -9.09 0.01 -9.98 13.60 0.00 12.58
2022-01-18 12:00 AM -10.00 100.00 819.80 1.90 90.00 -10.00 0.01 -10.60 13.60 0.00 12.46
2022-01-17 11:00 PM -10.20 81.00 819.80 1.10 164.00 -12.84 0.01 -13.53 13.90 0.00 12.70
2022-01-17 10:00 PM -8.90 100.00 819.80 0.40 227.00 -8.90 0.01 -12.74 14.00 0.00 12.63
2022-01-17 09:00 PM -6.50 99.80 819.80 3.00 72.00 -6.53 0.01 -12.08 13.90 0.00 12.60
2022-01-17 08:00 PM -7.10 100.00 819.60 1.30 262.00 -7.10 0.01 -14.35 13.70 0.00 12.78
2022-01-17 07:00 PM -5.20 91.70 819.30 3.10 315.00 -6.34 0.01 -13.86 13.50 0.00 12.70
2022-01-17 06:00 PM -2.00 89.60 819.00 2.20 78.00 -3.48 0.01 -13.18 13.50 0.00 12.68
2022-01-17 05:00 PM -1.60 78.90 818.80 1.90 177.00 -4.78 0.01 -8.85 14.40 0.00 12.89
2022-01-17 04:00 PM -0.30 75.30 818.90 3.30 170.00 -4.14 0.01 95.00 14.30 0.00 13.82
2022-01-17 03:00 PM 1.30 68.80 818.80 2.80 219.00 -3.80 0.01 105.20 14.60 0.00 13.56
2022-01-17 02:00 PM 2.30 65.90 818.80 3.60 211.00 -3.42 0.01 405.00 109.30 0.00 14.66
2022-01-17 01:00 PM 1.10 71.80 819.40 5.70 192.00 -3.42 0.01 612.30 13.90 0.00 14.58
2022-01-17 12:00 PM -0.80 74.10 820.10 5.60 196.00 -4.83 0.01 536.20 109.30 0.00 14.74
2022-01-17 11:00 AM -1.80 77.70 821.00 0.40 203.00 -5.18 0.01 441.30 14.20 0.00 13.92
2022-01-17 10:00 AM -7.00 88.40 821.20 0.20 126.00 -8.59 0.01 396.40 14.30 0.00 13.12
2022-01-17 09:00 AM -8.00 100.00 821.00 0.20 156.00 -8.00 0.01 273.20 14.00 0.00 12.51
2022-01-17 08:00 AM -15.10 100.00 820.90 0.10 349.00 -15.11 0.01 16.80 14.20 0.00 12.26
2022-01-17 07:00 AM -15.40 91.70 820.90 0.70 69.00 -16.45 0.01 -11.48 14.30 0.00 12.25
2022-01-17 06:00 AM -15.80 94.30 820.50 0.90 102.00 -16.51 0.01 -10.34 14.40 0.00 12.32
2022-01-17 05:00 AM -15.40 100.00 820.40 0.20 226.00 -15.41 0.01 -11.45 14.10 0.00 12.28
2022-01-17 04:00 AM -14.50 95.80 820.80 0.90 300.00 -15.03 0.01 -11.78 14.00 0.00 12.40
2022-01-17 03:00 AM -15.20 95.70 821.20 0.90 128.00 -15.74 0.01 -11.73 14.20 0.00 12.45
2022-01-17 02:00 AM -13.20 96.30 821.50 3.10 116.00 -13.67 0.01 -11.98 13.90 0.00 12.41
2022-01-17 01:00 AM -11.20 100.00 821.80 0.90 56.00 -11.20 0.01 -12.49 14.10 0.00 12.51
2022-01-17 12:00 AM -12.00 100.00 822.30 0.30 9.00 -12.00 0.01 -11.04 14.10 0.00 12.64
2022-01-16 11:00 PM -11.70 100.00 822.50 1.20 86.00 -11.70 0.01 -12.76 13.90 0.00 12.47
2022-01-16 10:00 PM -10.20 100.00 822.40 0.90 327.00 -10.20 0.01 -12.89 14.10 0.00 12.63
2022-01-16 09:00 PM -8.80 99.10 822.60 1.70 73.00 -8.92 0.01 -13.76 13.80 0.00 12.65
2022-01-16 08:00 PM -8.90 95.80 822.70 2.70 145.00 -9.45 0.01 -13.96 13.90 0.00 12.67
2022-01-16 07:00 PM -6.30 97.10 822.60 1.50 201.00 -6.69 0.01 -13.85 13.90 0.00 12.66
2022-01-16 06:00 PM -5.00 85.50 822.80 0.90 193.00 -7.05 0.01 -14.92 13.90 0.00 12.80
2022-01-16 05:00 PM -0.90 73.30 822.90 3.30 154.00 -5.07 0.01 -12.48 13.30 0.00 12.88
2022-01-16 04:00 PM 4.90 52.60 822.60 1.30 264.00 -3.98 0.01 209.60 13.90 0.00 14.07
2022-01-16 03:00 PM 3.70 58.20 822.60 1.50 209.00 -3.75 0.01 340.50 14.00 0.00 14.11
2022-01-16 02:00 PM 2.80 65.30 823.00 2.00 202.00 -3.06 0.01 341.90 109.30 0.00 14.19
2022-01-16 01:00 PM 2.10 68.60 823.50 0.80 209.00 -3.07 0.01 523.90 109.30 0.00 14.64
2022-01-16 12:00 PM 1.40 70.10 824.20 4.10 221.00 -3.45 0.01 546.80 109.30 0.00 14.57
2022-01-16 11:00 AM -0.70 72.60 824.70 0.40 178.00 -5.01 0.01 505.10 109.30 0.00 14.72
2022-01-16 10:00 AM -4.30 80.10 825.00 0.20 323.00 -7.22 0.01 422.70 13.80 0.00 13.18
2022-01-16 09:00 AM -6.50 74.40 825.10 1.00 209.00 -10.30 0.01 279.40 13.50 0.00 12.42
2022-01-16 08:00 AM -15.30 93.30 824.80 0.40 220.00 -16.14 0.01 8.74 14.10 0.00 12.20
2022-01-16 07:00 AM -16.40 91.50 825.00 0.00 0.00 -17.46 0.01 -9.67 14.00 0.00 12.32
2022-01-16 06:00 AM -16.10 99.20 825.00 0.30 135.00 -16.20 0.01 -10.49 14.20 0.00 12.22
2022-01-16 05:00 AM -17.30 94.50 825.10 0.30 232.00 -17.98 0.01 -12.49 14.20 0.00 12.28
2022-01-16 04:00 AM -14.20 95.80 825.10 1.10 111.00 -14.73 0.01 -10.30 14.00 0.00 12.35
2022-01-16 03:00 AM -14.20 96.90 825.60 0.50 281.00 -14.59 0.01 -11.61 13.90 0.00 12.33
2022-01-16 02:00 AM -13.50 97.00 825.90 1.60 94.00 -13.88 0.01 -11.35 13.90 0.00 12.43
2022-01-16 01:00 AM -14.10 97.20 825.70 1.00 47.00 -14.45 0.01 -11.23 14.10 0.00 12.41
2022-01-16 12:00 AM -13.20 100.00 826.40 0.50 280.00 -13.20 0.01 -11.46 14.10 0.00 12.59
2022-01-15 11:00 PM -9.50 100.00 826.50 1.40 29.00 -9.50 0.01 -11.15 14.00 0.00 12.53
2022-01-15 10:00 PM -10.90 100.00 826.50 2.10 125.00 -10.90 0.01 -12.79 14.20 0.00 12.51
2022-01-15 09:00 PM -11.00 100.00 826.90 0.90 65.00 -11.00 0.01 -13.02 14.10 0.00 12.58
2022-01-15 08:00 PM -7.70 100.00 826.90 2.10 109.00 -7.70 0.01 -11.33 13.90 0.00 12.59
2022-01-15 07:00 PM -7.10 100.00 826.90 3.80 27.00 -7.10 0.01 -13.05 14.10 0.00 12.66
2022-01-15 06:00 PM -3.10 88.90 826.90 3.90 97.00 -4.67 0.01 -13.91 13.60 0.00 12.75
2022-01-15 05:00 PM -0.10 79.70 826.50 3.20 122.00 -3.18 0.01 -13.02 13.90 0.00 12.77
2022-01-15 04:00 PM 1.70 73.10 826.70 4.30 188.00 -2.60 0.01 149.60 14.60 0.00 14.26
2022-01-15 03:00 PM 2.30 71.70 827.10 4.30 194.00 -2.28 0.01 307.50 109.30 0.00 14.17
2022-01-15 02:00 PM 1.60 73.90 827.20 8.20 192.00 -2.55 0.01 440.90 109.30 0.00 14.64
2022-01-15 01:00 PM 1.60 75.10 827.80 7.40 199.00 -2.33 0.01 526.00 109.30 0.00 14.82
2022-01-15 12:00 PM 0.80 77.10 828.30 7.10 210.00 -2.75 0.01 551.40 109.30 0.00 14.78
2022-01-15 11:00 AM 0.00 80.80 829.20 6.60 189.00 -2.90 0.01 513.10 13.70 0.00 13.69
2022-01-15 10:00 AM -1.70 99.20 829.40 4.80 207.00 -1.81 0.01 421.10 13.70 0.00 12.75
2022-01-15 09:00 AM -6.00 100.00 829.40 0.00 0.00 -6.00 0.01 247.20 13.70 0.00 12.40
2022-01-15 08:00 AM -16.60 96.50 829.80 1.70 197.00 -17.03 0.01 8.64 13.30 0.00 12.16
2022-01-15 07:00 AM -14.20 99.50 829.80 1.20 130.00 -14.27 0.01 -10.25 13.10 0.00 12.22
2022-01-15 06:00 AM -15.10 92.20 829.40 1.80 314.00 -16.08 0.01 -13.65 13.40 0.00 12.23
2022-01-15 05:00 AM -16.10 94.70 829.80 0.40 196.00 -16.76 0.01 -12.04 13.30 0.00 12.21
2022-01-15 04:00 AM -15.30 96.60 829.80 0.90 135.00 -15.72 0.01 -11.14 13.60 0.00 12.36
2022-01-15 03:00 AM -14.00 98.90 830.10 1.50 83.00 -14.14 0.01 -10.22 13.40 0.00 12.32
2022-01-15 02:00 AM -13.10 100.00 830.70 3.90 169.00 -13.10 0.01 -9.58 13.50 0.00 12.33
2022-01-15 01:00 AM -10.50 100.00 830.70 0.30 9.00 -10.50 0.01 -11.67 13.20 0.00 12.32
2022-01-15 12:00 AM -10.30 100.00 831.10 2.10 27.00 -10.30 0.01 -10.54 13.60 0.00 12.37
2022-01-14 11:00 PM -10.30 100.00 831.50 2.30 113.00 -10.30 0.01 -13.77 13.60 0.00 12.43
2022-01-14 10:00 PM -9.70 93.20 831.70 1.60 349.00 -10.59 0.01 -13.06 13.70 0.00 12.39
2022-01-14 09:00 PM -7.30 100.00 831.40 3.80 75.00 -7.30 0.01 -10.90 13.70 0.00 12.41
2022-01-14 08:00 PM -4.70 100.00 831.70 1.90 149.00 -4.70 0.01 -13.37 13.70 0.00 12.54
2022-01-14 07:00 PM -2.70 93.90 831.50 4.10 21.00 -3.55 0.01 -13.63 13.70 0.00 12.64
2022-01-14 06:00 PM -1.60 90.40 831.50 1.90 300.00 -2.97 0.01 -14.76 13.70 0.00 12.72
2022-01-14 05:00 PM -0.50 86.10 831.70 5.30 28.00 -2.54 0.01 -11.87 13.90 0.00 12.71
2022-01-14 04:00 PM 1.80 75.00 831.00 7.60 49.00 -2.16 0.01 145.10 14.00 0.00 13.89
2022-01-14 03:00 PM 1.80 78.20 831.00 11.60 28.00 -1.59 0.01 301.90 14.00 0.00 13.93
2022-01-14 02:00 PM 2.20 75.60 831.20 6.90 28.00 -1.66 0.01 429.50 14.20 0.00 14.10
2022-01-14 01:00 PM 1.10 80.10 831.70 6.30 338.00 -1.95 0.01 514.50 14.40 0.00 13.96
2022-01-14 12:00 PM 0.00 88.60 831.90 5.20 31.00 -1.66 0.01 539.50 14.30 0.00 13.77
2022-01-14 11:00 AM -1.00 97.60 832.40 6.90 23.00 -1.33 0.01 507.10 14.40 0.00 12.99
2022-01-14 10:00 AM -1.50 100.00 832.40 13.70 46.00 -1.50 0.01 452.10 14.50 0.00 12.54
2022-01-14 09:00 AM -2.50 100.00 832.00 8.70 24.00 -2.50 0.01 216.00 14.30 0.00 12.21
2022-01-14 08:00 AM -5.10 100.00 831.50 2.40 44.00 -5.10 0.01 34.38 14.30 0.00 12.09
2022-01-14 07:00 AM -4.80 100.00 830.80 4.10 75.00 -4.80 0.01 -10.01 14.10 0.00 12.11
2022-01-14 06:00 AM -2.00 96.90 830.00 6.40 27.00 -2.43 0.01 -12.99 14.30 0.00 12.08
2022-01-14 05:00 AM -0.80 90.60 829.90 2.40 341.00 -2.14 0.01 -10.44 14.30 0.00 12.14
2022-01-14 04:00 AM -0.60 92.60 829.80 8.30 50.00 -1.65 0.01 -9.44 14.50 0.00 12.16
2022-01-14 03:00 AM -1.20 98.90 829.40 2.10 6.00 -1.35 0.01 -10.62 14.30 0.00 12.16
2022-01-14 02:00 AM -1.30 97.90 829.60 4.50 39.00 -1.59 0.01 -9.54 14.40 0.00 12.19
2022-01-14 01:00 AM -0.40 93.10 828.90 5.20 33.00 -1.38 0.01 -13.11 14.30 0.00 12.23
2022-01-14 12:00 AM 0.40 90.50 828.50 5.90 32.00 -0.97 0.01 -9.66 14.40 0.00 12.21
2022-01-13 11:00 PM 0.50 89.50 828.50 7.10 67.00 -1.03 0.01 -9.54 14.40 0.00 12.30
2022-01-13 10:00 PM 0.20 80.20 827.60 2.60 346.00 -2.81 0.01 -11.49 14.20 0.00 12.24
2022-01-13 09:00 PM -1.60 90.80 826.80 2.60 77.00 -2.91 0.01 -11.53 14.30 0.00 12.29
2022-01-13 08:00 PM -0.30 80.80 826.40 3.20 311.00 -3.20 0.01 -11.14 14.20 0.00 12.20
2022-01-13 07:00 PM 0.50 72.90 826.00 3.40 290.00 -3.80 0.01 -15.33 14.00 0.00 12.32
2022-01-13 06:00 PM 2.40 69.10 825.80 2.80 31.00 -2.68 0.01 -10.89 14.40 0.00 12.29
2022-01-13 05:00 PM 2.30 67.60 824.80 1.90 247.00 -3.08 0.01 -1.66 14.30 0.00 12.47
2022-01-13 04:00 PM 3.50 63.50 824.20 9.80 288.00 -2.77 0.01 147.70 14.40 0.00 13.07
2022-01-13 03:00 PM 5.00 53.40 823.80 9.80 286.00 -3.68 0.01 269.30 14.50 0.00 12.68
2022-01-13 02:00 PM 5.70 49.90 823.20 5.30 239.00 -3.94 0.01 433.90 14.50 0.00 13.37
2022-01-13 01:00 PM 5.10 50.30 822.80 6.80 204.00 -4.39 0.01 514.10 14.60 0.00 13.14
2022-01-13 12:00 PM 4.90 46.90 823.60 9.40 197.00 -5.50 0.01 543.70 14.70 0.00 12.77
2022-01-13 11:00 AM 4.90 47.50 824.40 6.70 203.00 -5.33 0.01 515.00 14.60 0.00 12.55
2022-01-13 10:00 AM 3.10 58.30 824.30 7.60 239.00 -4.29 0.01 418.70 14.60 0.00 12.04
2022-01-13 09:00 AM 2.20 58.70 824.20 9.90 200.00 -5.05 0.01 279.10 14.50 0.00 11.89
2022-01-13 08:00 AM -0.20 64.30 824.60 5.10 224.00 -6.13 0.01 6.92 14.50 0.00 11.86
2022-01-13 07:00 AM -0.30 69.60 824.20 5.20 200.00 -5.18 0.01 -12.24 14.50 0.00 11.88
2022-01-13 06:00 AM 0.40 75.40 824.60 6.00 192.00 -3.44 0.01 -10.14 14.60 0.00 11.80
2022-01-13 05:00 AM 0.50 73.50 824.80 8.80 217.00 -3.69 0.01 -9.24 14.70 0.00 11.93
2022-01-13 04:00 AM 0.30 73.80 824.80 7.90 204.00 -3.82 0.01 -11.27 14.50 0.00 11.90
2022-01-13 03:00 AM 0.00 75.10 825.40 6.00 200.00 -3.88 0.01 -11.73 14.60 0.00 11.96
2022-01-13 02:00 AM 0.60 74.10 826.10 12.50 206.00 -3.48 0.01 -11.17 14.60 0.00 11.94
2022-01-13 01:00 AM -0.20 78.80 825.80 9.70 201.00 -3.43 0.01 -10.73 14.60 0.00 11.99
2022-01-13 12:00 AM -0.50 78.50 826.40 14.10 198.00 -3.78 0.01 -11.41 14.50 0.00 12.03
2022-01-12 11:00 PM -1.20 82.00 826.30 9.40 203.00 -3.88 0.01 -11.18 14.50 0.00 12.00
2022-01-12 10:00 PM -4.10 91.00 826.90 1.90 127.00 -5.35 0.01 -9.24 14.70 0.00 12.05
2022-01-12 09:00 PM -3.90 100.00 826.80 3.40 60.00 -3.90 0.01 -9.52 14.10 0.00 12.04
2022-01-12 08:00 PM -5.50 87.20 827.70 1.20 212.00 -7.29 0.01 -13.40 14.20 0.00 12.10
2022-01-12 07:00 PM 0.00 69.30 828.20 1.80 327.00 -4.95 0.01 -14.94 13.80 0.00 12.19
2022-01-12 06:00 PM -1.00 82.20 828.10 2.30 122.00 -3.65 0.01 -12.80 14.40 0.00 12.15
2022-01-12 05:00 PM 0.30 75.80 828.10 1.40 97.00 -3.47 0.01 -12.15 14.50 0.00 12.26
2022-01-12 04:00 PM 5.20 53.60 828.00 3.10 211.00 -3.45 0.01 173.00 14.50 0.00 13.04
2022-01-12 03:00 PM 3.70 58.20 829.00 4.90 196.00 -3.75 0.01 236.10 14.50 0.00 12.96
2022-01-12 02:00 PM 4.00 58.80 829.40 6.00 185.00 -3.33 0.01 424.20 14.60 0.00 13.07
2022-01-12 01:00 PM 4.90 55.50 829.20 3.30 209.00 -3.26 0.01 511.40 14.50 0.00 13.23
2022-01-12 12:00 PM 3.80 56.80 829.80 4.50 180.00 -3.98 0.01 540.10 14.60 0.00 13.08
2022-01-12 11:00 AM 1.80 60.90 830.60 2.40 176.00 -4.94 0.01 516.50 14.40 0.00 12.73
2022-01-12 10:00 AM -2.40 84.60 831.20 1.40 256.00 -4.64 0.01 354.70 14.30 0.00 12.17
2022-01-12 09:00 AM -7.60 97.70 830.90 0.50 65.00 -7.90 0.01 84.60 14.40 0.00 11.85
2022-01-12 08:00 AM -10.80 99.40 830.80 2.30 38.00 -10.88 0.01 28.57 14.30 0.00 11.55
2022-01-12 07:00 AM -8.30 100.00 830.60 4.30 41.00 -8.30 0.01 -2.05 14.00 0.00 11.58
2022-01-12 06:00 AM -8.30 94.70 830.40 0.50 107.00 -9.00 0.01 -2.44 14.20 0.00 11.74
2022-01-12 05:00 AM -5.20 80.00 830.40 1.40 40.00 -8.11 0.01 -2.80 13.40 0.00 11.66
2022-01-12 04:00 AM -10.00 95.80 830.40 1.10 84.00 -10.55 0.01 -1.65 14.10 0.00 11.74
2022-01-12 03:00 AM -8.80 85.90 830.60 3.10 9.00 -10.73 0.01 -3.00 14.10 0.00 11.57
2022-01-12 02:00 AM -10.50 93.30 831.20 1.30 41.00 -11.38 0.01 -2.38 14.10 0.00 11.69
2022-01-12 01:00 AM -9.40 100.00 830.80 1.20 156.00 -9.40 0.01 -9.75 13.80 0.00 11.69
2022-01-12 12:00 AM -7.70 100.00 831.40 1.50 60.00 -7.70 0.01 -2.20 14.00 0.00 11.80
2022-01-11 11:00 PM -5.00 79.00 831.30 0.90 234.00 -8.08 0.01 -11.90 13.40 0.00 11.66
2022-01-11 10:00 PM -6.40 76.30 831.40 2.40 303.00 -9.88 0.01 -11.98 13.80 0.00 11.68
2022-01-11 09:00 PM -8.10 100.00 831.30 2.60 95.00 -8.10 0.01 -10.02 14.10 0.00 11.71
2022-01-11 08:00 PM -6.10 92.50 831.30 1.70 13.00 -7.12 0.01 -11.11 14.40 0.00 11.84
2022-01-11 07:00 PM -3.50 78.50 831.30 4.10 92.00 -6.70 0.01 -12.74 14.00 0.00 11.81
2022-01-11 06:00 PM -2.80 82.50 830.80 0.20 24.00 -5.36 0.01 -12.53 13.70 0.00 11.87
2022-01-11 05:00 PM -1.90 84.90 830.70 2.90 136.00 -4.10 0.01 -10.83 13.80 0.00 11.89
2022-01-11 04:00 PM -1.00 80.50 830.50 2.50 136.00 -3.93 0.01 83.20 14.30 0.00 12.43
2022-01-11 03:00 PM 0.80 70.20 830.10 6.10 191.00 -4.01 0.01 269.20 14.30 0.00 12.89
2022-01-11 02:00 PM 1.00 67.00 830.40 5.60 187.00 -4.44 0.01 255.30 14.30 0.00 12.23
2022-01-11 01:00 PM 0.70 69.60 830.70 5.10 188.00 -4.22 0.01 334.70 14.40 0.00 12.48
2022-01-11 12:00 PM 0.30 70.60 831.50 7.30 206.00 -4.41 0.01 441.10 14.40 0.00 12.42
2022-01-11 11:00 AM 0.00 74.10 832.30 5.80 163.00 -4.06 0.01 287.40 14.30 0.00 12.03
2022-01-11 10:00 AM -1.20 83.60 831.80 4.30 164.00 -3.62 0.01 193.30 14.40 0.00 11.78
2022-01-11 09:00 AM -3.70 96.60 832.20 2.50 156.00 -4.16 0.01 71.94 14.40 0.00 11.73
2022-01-11 08:00 AM -7.80 100.00 831.50 1.90 26.00 -7.80 0.01 73.04 14.50 0.00 11.64
2022-01-11 07:00 AM -9.30 97.80 831.60 2.90 21.00 -9.59 0.01 -0.91 14.30 0.00 11.68
2022-01-11 06:00 AM -7.30 100.00 831.70 1.60 90.00 -7.30 0.01 -7.82 14.10 0.00 11.69
2022-01-11 05:00 AM -10.00 98.50 831.90 3.40 70.00 -10.20 0.01 -0.46 14.50 0.00 11.63
2022-01-11 04:00 AM -10.50 100.00 831.70 1.40 336.00 -10.50 0.01 -7.99 14.30 0.00 11.72
2022-01-11 03:00 AM -11.50 96.50 832.30 2.80 88.00 -11.95 0.01 -8.82 14.30 0.00 11.74
2022-01-11 02:00 AM -11.40 96.10 832.10 1.90 117.00 -11.90 0.01 -10.08 14.20 0.00 11.76
2022-01-11 01:00 AM -12.10 96.90 831.90 2.50 127.00 -12.50 0.01 -1.50 14.30 0.00 11.75
2022-01-11 12:00 AM -12.40 98.00 831.80 1.40 117.00 -12.65 0.01 -10.34 14.20 0.00 11.70
2022-01-10 11:00 PM -11.00 100.00 832.40 1.40 146.00 -11.00 0.01 -11.48 14.00 0.00 11.75
2022-01-10 10:00 PM -11.00 100.00 832.50 2.40 145.00 -11.00 0.01 -11.28 14.20 0.00 11.86
2022-01-10 09:00 PM -9.90 100.00 832.30 3.60 93.00 -9.90 0.01 -11.07 14.10 0.00 11.85
2022-01-10 07:00 PM -6.30 89.60 832.40 1.00 339.00 -7.73 0.01 -12.63 14.20 0.00 11.96
2022-01-10 06:00 PM -3.80 98.50 831.80 1.80 0.00 -4.00 0.01 -12.27 14.20 0.00 11.97
2022-01-10 05:00 PM -0.70 82.30 831.90 0.90 287.00 -3.34 0.01 -12.89 14.40 0.00 12.03
2022-01-10 04:00 PM 0.30 78.50 831.90 5.90 217.00 -3.00 0.01 141.20 14.40 0.00 12.71
2022-01-10 03:00 PM 0.90 71.80 831.70 5.80 201.00 -3.61 0.01 262.00 14.40 0.00 12.86
2022-01-10 02:00 PM 1.60 71.20 831.30 6.00 212.00 -3.05 0.01 406.50 14.50 0.00 12.81
2022-01-10 01:00 PM 1.60 71.50 831.70 6.30 218.00 -2.99 0.01 330.10 14.40 0.00 12.17
2022-01-10 12:00 PM -0.50 83.40 832.50 5.10 238.00 -2.97 0.01 296.80 14.50 0.00 12.02
2022-01-10 11:00 AM -2.70 90.00 833.80 7.70 179.00 -4.11 0.01 154.80 14.50 0.00 11.74
2022-01-10 10:00 AM -1.90 75.60 833.60 6.50 221.00 -5.64 0.01 189.40 14.50 0.00 11.85
2022-01-10 09:00 AM -4.20 81.60 832.40 7.10 200.00 -6.88 0.01 141.20 14.50 0.00 11.77
2022-01-10 08:00 AM -5.40 86.30 831.90 4.50 167.00 -7.33 0.01 24.63 14.60 0.00 11.69
2022-01-10 07:00 AM -5.80 89.00 831.70 3.00 65.00 -7.32 0.01 -1.73 14.70 0.00 11.67
2022-01-10 06:00 AM -6.10 90.10 831.40 6.70 210.00 -7.46 0.01 -8.70 14.60 0.00 11.63
2022-01-10 05:00 AM -5.40 83.10 831.00 4.20 95.00 -7.82 0.01 -10.50 13.80 0.00 11.67
2022-01-10 04:00 AM -7.30 90.90 831.10 2.70 72.00 -8.53 0.01 -10.74 14.20 0.00 11.75
2022-01-10 03:00 AM -6.10 85.30 831.40 3.30 164.00 -8.17 0.01 -10.58 14.40 0.00 11.79
2022-01-10 02:00 AM -6.70 90.60 830.80 2.80 1.00 -7.98 0.01 -11.11 14.50 0.00 11.73
2022-01-10 01:00 AM -5.20 84.20 831.20 7.40 191.00 -7.45 0.01 -10.65 14.40 0.00 11.74
2022-01-10 12:00 AM -3.90 81.20 831.40 3.90 155.00 -6.65 0.01 -11.94 14.50 0.00 11.85
2022-01-09 11:00 PM -3.40 73.30 830.80 2.00 210.00 -7.49 0.01 -11.30 14.40 0.00 11.84
2022-01-09 10:00 PM -4.60 74.60 831.00 3.80 59.00 -8.42 0.01 -12.65 13.80 0.00 11.89
2022-01-09 09:00 PM -5.40 81.20 831.10 1.00 193.00 -8.11 0.01 -10.11 14.60 0.00 11.84
2022-01-09 08:00 PM -6.00 81.30 830.70 5.10 85.00 -8.68 0.01 -11.94 14.20 0.00 11.94
2022-01-09 07:00 PM -5.40 83.60 830.70 3.40 96.00 -7.74 0.01 -11.96 14.30 0.00 11.98
2022-01-09 06:00 PM -2.90 79.50 830.60 4.30 187.00 -5.95 0.01 -11.95 14.40 0.00 11.95
2022-01-09 05:00 PM -1.50 72.60 829.80 11.60 206.00 -5.78 0.01 -11.55 14.50 0.00 12.03
2022-01-09 04:00 PM -0.30 69.80 829.50 6.70 226.00 -5.14 0.01 132.10 14.50 0.00 12.93
2022-01-09 03:00 PM 0.40 67.90 829.30 7.60 210.00 -4.84 0.01 284.20 14.60 0.00 13.30
2022-01-09 02:00 PM 0.60 65.10 829.40 4.30 201.00 -5.20 0.01 413.60 14.60 0.00 13.47
2022-01-09 01:00 PM 0.90 60.70 829.80 6.20 140.00 -5.84 0.01 494.70 14.50 0.00 13.82
2022-01-09 12:00 PM 0.20 60.70 830.10 1.70 176.00 -6.50 0.01 523.30 14.40 0.00 13.72
2022-01-09 11:00 AM -4.20 74.40 830.80 0.80 130.00 -8.07 0.01 485.20 14.50 0.00 13.62
2022-01-09 10:00 AM -6.70 89.40 830.60 2.10 119.00 -8.15 0.01 406.40 14.70 0.00 12.77
2022-01-09 05:00 AM -15.90 94.10 827.60 1.40 35.00 -16.63 0.01 -3.57 14.30 0.00 11.04
2022-01-09 04:00 AM -16.20 92.60 827.30 1.70 102.00 -17.12 0.01 -3.52 14.00 0.00 11.41
2022-01-09 03:00 AM -14.60 94.40 827.60 0.40 182.00 -15.30 0.01 -2.75 14.10 0.00 11.48
2022-01-09 02:00 AM -15.60 96.30 827.40 2.90 40.00 -16.06 0.01 -2.55 14.30 0.00 11.50
2022-01-09 01:00 AM -15.00 89.10 827.10 2.60 98.00 -16.40 0.01 -3.96 14.10 0.00 11.57
2022-01-09 12:00 AM -15.00 94.40 826.80 2.30 132.00 -15.70 0.01 -3.07 14.30 0.00 11.56
2022-01-08 11:00 PM -13.90 98.30 826.60 2.50 137.00 -14.11 0.01 -2.04 14.40 0.00 11.54
2022-01-08 10:00 PM -8.50 88.40 826.40 1.30 43.00 -10.07 0.01 -3.28 14.50 0.00 11.65
2022-01-08 09:00 PM -11.30 92.80 825.90 1.40 138.00 -12.24 0.01 -1.86 14.30 0.00 11.63
2022-01-08 08:00 PM -9.80 89.90 825.80 4.70 34.00 -11.15 0.01 -2.55 14.30 0.00 11.67
2022-01-08 07:00 PM -9.10 90.40 825.60 1.00 126.00 -10.38 0.01 -1.49 14.60 0.00 11.78
2022-01-08 06:00 PM -7.90 75.90 824.80 3.30 326.00 -11.40 0.01 -12.56 14.20 0.00 11.72
2022-01-08 05:00 PM -4.20 67.00 824.40 1.70 65.00 -9.41 0.01 -12.48 14.40 0.00 11.83
2022-01-08 04:00 PM 1.80 45.90 824.00 0.40 300.00 -8.62 0.01 119.10 14.40 0.00 12.60
2022-01-08 03:00 PM 1.00 50.10 823.30 2.10 275.00 -8.23 0.01 282.20 14.70 0.00 12.72
2022-01-08 02:00 PM 0.50 51.40 822.90 3.40 293.00 -8.37 0.01 410.70 14.80 0.00 12.98
2022-01-08 01:00 PM 1.60 45.10 822.40 1.10 265.00 -9.03 0.01 484.40 14.50 0.00 12.90
2022-01-08 12:00 PM 0.40 55.20 822.60 1.10 295.00 -7.54 0.01 522.20 14.60 0.00 12.59
2022-01-08 11:00 AM 0.50 59.60 822.90 1.20 219.00 -6.45 0.01 485.50 14.40 0.00 12.12
2022-01-08 10:00 AM -2.70 74.50 822.40 3.00 335.00 -6.60 0.01 404.80 14.70 0.00 11.30
2022-01-07 10:00 PM -3.20 70.00 814.80 3.50 285.00 -7.89 0.01 -6.33 14.20 0.00 10.45
2022-01-07 09:00 PM -1.60 72.60 814.00 7.10 276.00 -5.88 0.01 -3.73 15.50 0.00 10.56
2022-01-07 08:00 PM -0.80 72.20 813.90 6.40 260.00 -5.18 0.01 -3.75 14.90 0.00 10.69
2022-01-07 07:00 PM -1.10 78.00 813.60 1.70 338.00 -4.45 0.00 -1.67 14.70 0.00 10.98
2022-01-07 06:00 PM 0.10 71.10 812.70 6.90 237.00 -4.51 0.00 -1.07 14.80 0.00 10.88
2022-01-07 05:00 PM -0.90 81.50 811.90 10.30 289.00 -3.67 0.00 -2.21 14.90 0.00 10.96
2022-01-07 04:00 PM 1.00 86.00 811.00 7.60 247.00 -1.08 0.00 66.80 14.60 0.00 11.16
2022-01-07 03:00 PM 0.40 97.10 810.40 8.90 211.00 -0.01 0.00 107.70 14.60 0.00 11.13
2022-01-07 02:00 PM 2.80 67.60 809.60 14.70 226.00 -2.60 0.00 170.00 14.70 0.00 11.37
2022-01-07 01:00 PM 2.80 67.20 810.30 16.40 259.00 -2.68 0.00 249.80 14.70 0.00 11.24
2022-01-07 12:00 PM 2.40 70.30 810.60 15.00 221.00 -2.45 0.00 204.50 14.80 0.00 11.21
2022-01-07 11:00 AM 1.60 82.00 811.00 15.90 202.00 -1.14 0.00 455.90 14.80 0.00 11.08
2022-01-07 10:00 AM 1.10 86.50 811.40 14.10 192.00 -0.90 0.00 213.80 14.80 0.00 10.79
2022-01-07 09:00 AM 1.00 84.10 811.20 15.40 194.00 -1.38 0.00 44.62 14.80 0.00 10.61
2022-01-07 08:00 AM 0.60 83.30 810.80 10.10 198.00 -1.90 0.00 17.87 14.70 0.00 10.66
2022-01-07 07:00 AM 0.20 91.60 810.60 14.80 204.00 -1.00 0.00 0.04 14.80 0.00 10.79
2022-01-07 06:00 AM 0.80 83.60 810.70 12.30 201.00 -1.66 0.00 -0.42 14.90 0.00 10.91
2022-01-07 05:00 AM 0.90 83.50 809.80 13.80 205.00 -1.58 0.00 -0.47 14.90 0.00 10.95
2022-01-07 04:00 AM 1.00 78.30 810.00 19.10 227.00 -2.35 0.00 -2.57 14.80 0.00 10.98
2022-01-07 03:00 AM 1.50 73.60 810.50 15.30 222.00 -2.70 0.00 -2.51 14.80 0.00 11.09
2022-01-07 02:00 AM 1.30 67.80 810.40 18.60 200.00 -3.99 0.00 -2.09 14.80 0.00 11.14
2022-01-07 01:00 AM 1.30 66.60 810.60 14.90 225.00 -4.23 0.00 -2.52 14.90 0.00 11.13
2022-01-07 12:00 AM 1.50 71.00 810.80 14.20 217.00 -3.18 0.00 -2.25 14.90 0.00 11.21
2022-01-06 11:00 PM 2.40 67.60 811.90 10.00 211.00 -2.98 0.00 -1.70 14.90 0.00 11.16
2022-01-06 10:00 PM 1.00 68.30 812.80 10.50 219.00 -4.18 0.00 -3.58 14.80 0.00 11.27
2022-01-06 09:00 PM 2.10 64.10 813.10 13.80 201.00 -3.98 0.00 -2.58 14.80 0.00 11.29
2022-01-06 08:00 PM 1.80 68.10 814.00 9.60 212.00 -3.46 0.00 -3.54 14.80 0.00 11.34
2022-01-06 07:00 PM 1.90 75.20 814.70 6.30 197.00 -2.02 0.00 -3.59 14.90 0.00 11.39
2022-01-06 06:00 PM 1.90 79.60 815.30 8.10 205.00 -1.25 0.00 -3.19 14.90 0.00 11.40
2022-01-06 05:00 PM 2.90 75.90 815.60 13.20 224.00 -0.93 0.00 -2.04 15.00 0.00 11.52
2022-01-06 04:00 PM 3.60 75.40 816.00 8.60 221.00 -0.34 0.00 152.10 15.00 0.00 12.11
2022-01-06 03:00 PM 3.80 77.10 816.40 9.20 216.00 0.16 0.00 264.10 15.10 0.00 12.03
2022-01-06 02:00 PM 3.60 78.80 816.90 6.20 209.00 0.27 0.00 377.60 15.20 0.00 12.09
2022-01-06 01:00 PM 3.80 84.10 817.90 7.20 197.00 1.37 0.00 428.00 15.60 0.00 11.81
2022-01-06 12:00 PM 2.50 91.00 818.50 7.60 197.00 1.18 0.00 270.20 15.80 0.00 10.97
2022-01-05 06:00 PM 3.50 85.40 822.30 7.70 222.00 1.29 0.00 -0.40 17.10 0.00 10.30
2022-01-05 05:00 PM 3.10 85.50 822.10 6.40 207.00 0.91 0.00 -0.51 17.10 0.00 10.79
2022-01-05 04:00 PM 4.00 80.60 822.30 5.80 219.00 0.97 0.00 51.97 17.30 0.00 11.08
2022-01-05 03:00 PM 3.60 82.60 822.40 8.30 197.00 0.92 0.00 218.70 16.90 0.00 11.28
2022-01-05 02:00 PM 3.10 85.50 822.30 9.80 197.00 0.91 0.00 298.70 17.50 0.00 11.53
2022-01-05 01:00 PM 2.90 86.00 822.30 4.40 212.00 0.79 0.00 147.80 17.70 0.00 10.95
2022-01-05 12:00 PM 3.70 81.70 822.60 9.40 197.00 0.87 0.00 196.90 17.70 0.00 11.17
2022-01-05 11:00 AM 3.00 85.40 822.80 8.70 200.00 0.79 0.00 208.40 17.70 0.00 10.90
2022-01-05 10:00 AM 3.00 84.40 822.80 9.20 226.00 0.63 0.00 248.10 17.60 0.00 10.69
2022-01-04 08:00 PM 0.80 87.60 820.40 15.10 214.00 -1.02 0.00 -0.82 19.80 0.00 11.02
2022-01-04 07:00 PM 0.10 90.70 820.40 11.80 196.00 -1.24 0.00 -0.36 19.80 0.00 11.16
2022-01-04 06:00 PM 0.50 84.10 820.80 14.20 197.00 -1.87 0.00 -0.21 19.80 0.00 11.20
2022-01-04 05:00 PM 0.20 84.30 820.80 10.80 225.00 -2.13 0.00 -1.60 19.90 0.00 11.44
2022-01-04 04:00 PM 0.00 86.10 820.80 11.50 204.00 -2.04 0.00 12.66 19.80 0.00 11.57
2022-01-04 03:00 PM 0.10 86.30 820.80 9.30 208.00 -1.91 0.00 135.80 19.90 0.00 11.84
2022-01-04 02:00 PM 0.40 83.70 820.40 13.00 219.00 -2.03 0.00 188.00 19.80 0.00 12.06
2022-01-04 01:00 PM 0.80 83.10 820.00 19.10 219.00 -1.74 0.00 382.10 19.90 0.00 13.23
2022-01-04 12:00 PM 0.70 80.40 821.10 13.40 210.00 -2.29 0.00 285.40 20.10 0.00 12.16
2022-01-04 11:00 AM 0.80 77.90 821.00 12.40 222.00 -2.61 0.00 311.60 19.90 0.00 12.31
2022-01-04 10:00 AM 1.00 72.30 821.70 12.70 234.00 -3.42 0.00 210.90 19.80 0.00 11.69